createdAt,value
2022-09-20T00:01:08.408Z,6.70
2022-09-20T00:03:40.063Z,6.80
2022-09-20T00:06:09.361Z,6.70
2022-09-20T00:08:36.263Z,6.70
2022-09-20T00:11:08.996Z,6.70
2022-09-20T00:13:37.023Z,6.70
2022-09-20T00:16:08.612Z,6.70
2022-09-20T00:18:37.065Z,6.60
2022-09-20T00:21:04.863Z,6.60
2022-09-20T00:23:33.057Z,6.60
2022-09-20T00:26:04.475Z,6.50
2022-09-20T00:28:33.184Z,6.50
2022-09-20T00:30:59.958Z,6.50
2022-09-20T00:33:50.081Z,6.40
2022-09-20T00:36:16.623Z,6.40
2022-09-20T00:38:43.571Z,6.40
2022-09-20T00:41:10.566Z,6.40
2022-09-20T00:43:43.655Z,6.40
2022-09-20T00:46:28.177Z,6.60
2022-09-20T00:49:03.541Z,6.40
2022-09-20T00:51:34.539Z,6.30
2022-09-20T00:54:04.804Z,6.40
2022-09-20T00:56:35.143Z,6.40
2022-09-20T00:59:17.248Z,6.40
2022-09-20T01:01:48.215Z,6.40
2022-09-20T01:04:16.516Z,6.30
2022-09-20T01:06:45.599Z,6.30
2022-09-20T01:09:12.529Z,6.30
2022-09-20T01:11:40.802Z,6.30
2022-09-20T01:14:08.063Z,6.20
2022-09-20T01:16:36.222Z,6.30
2022-09-20T01:19:15.271Z,6.20
2022-09-20T01:21:42.288Z,6.20
2022-09-20T01:24:30.463Z,6.20
2022-09-20T01:27:13.114Z,6.10
2022-09-20T01:30:18.815Z,6.10
2022-09-20T01:33:06.182Z,6.10
2022-09-20T01:35:35.369Z,6.10
2022-09-20T01:38:08.255Z,6.00
2022-09-20T01:41:12.671Z,6.10
2022-09-20T01:43:52.873Z,6.10
2022-09-20T01:46:37.417Z,6.10
2022-09-20T01:49:12.659Z,6.00
2022-09-20T01:52:34.875Z,6.00
2022-09-20T01:55:12.237Z,6.00
2022-09-20T01:57:50.403Z,6.00
2022-09-20T02:00:31.378Z,5.90
2022-09-20T02:03:16.822Z,5.80
2022-09-20T02:06:17.011Z,5.90
2022-09-20T02:09:20.637Z,5.80
2022-09-20T02:11:59.571Z,5.80
2022-09-20T02:14:38.573Z,5.80
2022-09-20T02:17:16.356Z,5.70
2022-09-20T02:19:54.052Z,5.80
2022-09-20T02:22:31.644Z,5.70
2022-09-20T02:25:22.422Z,5.70
2022-09-20T02:28:12.765Z,5.70
2022-09-20T02:31:24.799Z,5.70
2022-09-20T02:34:09.483Z,5.70
2022-09-20T02:37:00.114Z,5.70
2022-09-20T02:39:36.855Z,5.70
2022-09-20T02:42:12.938Z,5.60
2022-09-20T02:45:02.985Z,5.60
2022-09-20T02:47:43.670Z,5.60
2022-09-20T02:50:45.795Z,5.60
2022-09-20T02:53:37.284Z,5.60
2022-09-20T02:56:37.827Z,5.60
2022-09-20T02:59:09.677Z,5.50
2022-09-20T03:02:00.875Z,5.40
2022-09-20T03:05:03.805Z,5.50
2022-09-20T03:07:50.741Z,5.50
2022-09-20T03:10:27.983Z,5.50
2022-09-20T03:13:25.349Z,5.40
2022-09-20T03:16:13.121Z,5.40
2022-09-20T03:19:16.102Z,5.40
2022-09-20T03:22:01.808Z,5.40
2022-09-20T03:25:09.597Z,5.40
2022-09-20T03:28:14.533Z,5.40
2022-09-20T03:30:54.436Z,5.40
2022-09-20T03:33:47.803Z,5.30
2022-09-20T03:36:41.118Z,5.30
2022-09-20T03:39:50.531Z,5.30
2022-09-20T03:42:27.247Z,5.30
2022-09-20T03:45:23.155Z,5.30
2022-09-20T03:48:27.026Z,5.30
2022-09-20T03:51:12.835Z,5.30
2022-09-20T03:54:01.847Z,5.20
2022-09-20T03:56:59.047Z,5.30
2022-09-20T03:59:44.048Z,5.30
2022-09-20T04:02:36.732Z,5.30
2022-09-20T04:05:10.405Z,5.20
2022-09-20T04:08:05.693Z,5.30
2022-09-20T04:11:17.845Z,5.30
2022-09-20T04:14:12.368Z,5.30
2022-09-20T04:16:55.979Z,5.30
2022-09-20T04:20:01.145Z,5.30
2022-09-20T04:22:30.021Z,5.30
2022-09-20T04:25:04.549Z,5.40
2022-09-20T04:27:44.900Z,5.40
2022-09-20T04:30:24.142Z,5.40
2022-09-20T04:33:11.283Z,5.60
2022-09-20T04:36:28.701Z,5.70
2022-09-20T04:39:03.560Z,5.90
2022-09-20T04:42:04.099Z,6.00
2022-09-20T04:45:21.238Z,6.10
2022-09-20T04:48:20.479Z,6.20
2022-09-20T04:50:59.077Z,6.30
2022-09-20T04:54:08.313Z,6.30
2022-09-20T04:56:56.846Z,6.40
2022-09-20T05:00:01.005Z,6.50
2022-09-20T05:03:12.082Z,6.60
2022-09-20T05:06:15.567Z,6.80
2022-09-20T05:08:59.001Z,7.00
2022-09-20T05:11:31.753Z,7.20
2022-09-20T05:14:48.976Z,7.30
2022-09-20T05:17:51.614Z,7.50
2022-09-20T05:20:49.111Z,7.70
2022-09-20T05:23:45.486Z,7.80
2022-09-20T05:26:24.724Z,8.00
2022-09-20T05:29:10.390Z,8.10
2022-09-20T05:32:06.786Z,8.10
2022-09-20T05:35:03.671Z,8.20
2022-09-20T05:37:55.745Z,8.30
2022-09-20T05:40:41.200Z,8.40
2022-09-20T05:43:16.454Z,8.50
2022-09-20T05:46:07.927Z,8.60
2022-09-20T05:48:57.228Z,8.60
2022-09-20T05:52:07.161Z,8.60
2022-09-20T05:54:47.413Z,8.70
2022-09-20T05:57:56.452Z,8.80
2022-09-20T06:00:28.988Z,8.80
2022-09-20T06:03:34.175Z,8.90
2022-09-20T06:06:32.407Z,8.90
2022-09-20T06:09:25.977Z,8.90
2022-09-20T06:12:00.833Z,8.90
2022-09-20T06:14:53.881Z,9.10
2022-09-20T06:17:43.758Z,8.90
2022-09-20T06:20:25.242Z,9.10
2022-09-20T06:22:55.721Z,9.20
2022-09-20T06:25:31.126Z,9.20
2022-09-20T06:28:13.471Z,9.30
2022-09-20T06:30:51.638Z,9.40
2022-09-20T06:33:26.409Z,9.30
2022-09-20T06:36:19.488Z,9.40
2022-09-20T06:39:25.691Z,9.50
2022-09-20T06:41:52.698Z,9.60
2022-09-20T06:44:19.207Z,9.60
2022-09-20T06:46:45.748Z,9.60
2022-09-20T06:49:12.278Z,9.60
2022-09-20T06:51:39.741Z,9.60
2022-09-20T06:54:11.711Z,9.60
2022-09-20T06:56:38.490Z,9.70
2022-09-20T06:59:10.354Z,9.80
2022-09-20T07:01:37.718Z,9.90
2022-09-20T07:04:06.278Z,10.00
2022-09-20T07:06:33.540Z,10.10
2022-09-20T07:09:00.612Z,10.10
2022-09-20T07:11:27.746Z,10.20
2022-09-20T07:13:56.869Z,10.30
2022-09-20T07:16:24.191Z,10.40
2022-09-20T07:18:52.498Z,10.50
2022-09-20T07:21:20.775Z,10.50
2022-09-20T07:23:49.924Z,10.50
2022-09-20T07:26:19.862Z,10.50
2022-09-20T07:28:46.826Z,10.60
2022-09-20T07:31:13.620Z,10.60
2022-09-20T07:33:40.216Z,10.80
2022-09-20T07:36:07.082Z,10.90
2022-09-20T07:38:33.994Z,10.90
2022-09-20T07:41:02.231Z,11.00
2022-09-20T07:43:30.757Z,11.20
2022-09-20T07:45:59.663Z,11.20
2022-09-20T07:48:29.194Z,11.10
2022-09-20T07:51:11.281Z,11.10
2022-09-20T07:53:38.887Z,11.30
2022-09-20T07:56:15.715Z,11.40
2022-09-20T07:58:43.456Z,11.50
2022-09-20T08:01:12.612Z,11.60
2022-09-20T08:03:40.407Z,11.70
2022-09-20T08:06:10.271Z,11.70
2022-09-20T08:08:38.934Z,11.70
2022-09-20T08:11:17.487Z,11.60
2022-09-20T08:14:18.199Z,11.60
2022-09-20T08:16:40.280Z,11.70
2022-09-20T08:19:07.085Z,11.80
2022-09-20T08:21:35.791Z,11.90
2022-09-20T08:24:03.838Z,11.90
2022-09-20T08:26:31.518Z,11.90
2022-09-20T08:29:00.140Z,12.00
2022-09-20T08:31:31.510Z,12.10
2022-09-20T08:33:59.155Z,12.10
2022-09-20T08:36:28.175Z,12.00
2022-09-20T08:41:47.588Z,12.10
2022-09-20T08:44:35.155Z,12.20
2022-09-20T08:47:22.404Z,12.20
2022-09-20T08:49:56.754Z,12.20
2022-09-20T08:52:37.426Z,12.10
2022-09-20T08:55:17.192Z,12.10
2022-09-20T08:57:47.787Z,12.10
2022-09-20T09:00:26.701Z,12.10
2022-09-20T09:02:57.121Z,12.10
2022-09-20T09:05:37.436Z,12.10
2022-09-20T09:08:16.601Z,12.20
2022-09-20T09:10:54.521Z,12.20
2022-09-20T09:13:48.768Z,12.20
2022-09-20T09:16:23.088Z,12.20
2022-09-20T09:18:51.970Z,12.30
2022-09-20T09:21:22.781Z,12.30
2022-09-20T09:24:09.845Z,12.20
2022-09-20T09:26:39.379Z,12.20
2022-09-20T09:29:17.955Z,12.30
2022-09-20T09:31:50.185Z,12.30
2022-09-20T09:34:31.627Z,12.40
2022-09-20T09:36:59.500Z,12.40
2022-09-20T09:39:38.177Z,12.40
2022-09-20T09:42:23.909Z,12.40
2022-09-20T09:44:50.846Z,12.50
2022-09-20T09:47:28.035Z,12.50
2022-09-20T09:50:03.688Z,12.70
2022-09-20T09:52:33.950Z,12.80
2022-09-20T09:55:05.894Z,12.90
2022-09-20T09:57:43.415Z,13.00
2022-09-20T10:00:19.477Z,13.10
2022-09-20T10:03:17.104Z,13.20
2022-09-20T10:06:00.109Z,13.20
2022-09-20T10:08:54.414Z,13.30
2022-09-20T10:11:49.703Z,13.40
2022-09-20T10:14:44.242Z,13.50
2022-09-20T10:17:36.729Z,13.50
2022-09-20T10:20:22.414Z,13.50
2022-09-20T10:26:22.516Z,13.60
2022-09-20T10:28:58.710Z,13.80
2022-09-20T10:31:35.488Z,13.90
2022-09-20T10:34:18.982Z,13.90
2022-09-20T10:36:57.923Z,13.90
2022-09-20T10:39:27.644Z,13.90
2022-09-20T10:42:53.719Z,13.90
2022-09-20T10:48:51.894Z,13.90
2022-09-20T10:51:39.882Z,13.90
2022-09-20T10:54:24.846Z,14.00
2022-09-20T10:56:59.298Z,14.00
2022-09-20T10:59:40.492Z,14.00
2022-09-20T11:02:23.765Z,14.00
2022-09-20T11:05:15.841Z,14.00
2022-09-20T11:07:59.966Z,14.00
2022-09-20T11:10:47.558Z,14.10
2022-09-20T11:13:42.213Z,14.10
2022-09-20T11:16:18.036Z,14.10
2022-09-20T11:19:18.873Z,14.10
2022-09-20T11:21:54.119Z,14.00
2022-09-20T11:24:36.826Z,14.00
2022-09-20T11:27:32.661Z,14.00
2022-09-20T11:30:04.327Z,13.90
2022-09-20T11:32:37.044Z,13.90
2022-09-20T11:35:21.007Z,14.00
2022-09-20T11:37:57.409Z,14.10
2022-09-20T11:40:35.632Z,14.00
2022-09-20T11:43:06.401Z,13.90
2022-09-20T11:45:34.509Z,13.80
2022-09-20T11:48:25.976Z,13.80
2022-09-20T11:51:16.587Z,13.80
2022-09-20T11:54:10.521Z,13.90
2022-09-20T11:56:38.861Z,14.00
2022-09-20T11:59:23.098Z,14.10
2022-09-20T12:01:56.520Z,14.20
2022-09-20T12:04:32.793Z,14.30
2022-09-20T12:07:02.449Z,14.50
2022-09-20T12:09:36.778Z,14.50
2022-09-20T12:12:25.839Z,14.70
2022-09-20T12:14:55.789Z,14.80
2022-09-20T12:17:44.144Z,15.00
2022-09-20T12:20:33.152Z,15.20
2022-09-20T12:23:40.794Z,15.30
2022-09-20T12:26:13.393Z,15.30
2022-09-20T12:28:54.142Z,15.20
2022-09-20T12:31:29.885Z,15.20
2022-09-20T12:34:00.927Z,15.10
2022-09-20T12:36:30.106Z,15.00
2022-09-20T12:39:23.332Z,14.90
2022-09-20T12:41:59.230Z,14.90
2022-09-20T12:44:37.755Z,14.80
2022-09-20T12:47:09.572Z,14.80
2022-09-20T12:50:04.176Z,14.70
2022-09-20T12:52:58.325Z,14.70
2022-09-20T12:55:50.754Z,14.60
2022-09-20T12:58:28.816Z,14.50
2022-09-20T13:01:04.692Z,14.40
2022-09-20T13:03:39.884Z,14.40
2022-09-20T13:06:12.526Z,14.30
2022-09-20T13:09:01.561Z,14.40
2022-09-20T13:11:45.619Z,14.50
2022-09-20T13:14:15.242Z,14.60
2022-09-20T13:16:53.234Z,14.70
2022-09-20T13:19:29.580Z,14.80
2022-09-20T13:22:11.470Z,14.80
2022-09-20T13:24:41.989Z,14.80
2022-09-20T13:27:37.605Z,14.70
2022-09-20T13:30:22.547Z,14.60
2022-09-20T13:32:51.364Z,14.50
2022-09-20T13:35:32.309Z,14.40
2022-09-20T13:38:02.808Z,14.30
2022-09-20T13:40:35.389Z,14.30
2022-09-20T13:43:22.687Z,14.20
2022-09-20T13:45:54.160Z,14.20
2022-09-20T13:48:25.193Z,14.10
2022-09-20T13:50:53.748Z,14.10
2022-09-20T13:53:40.232Z,14.10
2022-09-20T13:56:17.418Z,14.20
2022-09-20T13:58:44.478Z,14.30
2022-09-20T14:01:28.918Z,14.40
2022-09-20T14:04:08.176Z,14.60
2022-09-20T14:06:35.643Z,14.70
2022-09-20T14:09:10.748Z,14.80
2022-09-20T14:11:39.521Z,14.70
2022-09-20T14:14:08.279Z,14.60
2022-09-20T14:16:39.919Z,14.60
2022-09-20T14:19:08.517Z,14.60
2022-09-20T14:21:37.041Z,14.40
2022-09-20T14:24:25.723Z,14.30
2022-09-20T14:27:19.166Z,14.20
2022-09-20T14:29:51.436Z,14.00
2022-09-20T14:32:18.323Z,13.90
2022-09-20T14:34:59.209Z,13.90
2022-09-20T14:37:30.865Z,13.90
2022-09-20T14:40:15.991Z,14.00
2022-09-20T14:42:46.393Z,14.10
2022-09-20T14:45:34.371Z,14.10
2022-09-20T14:48:11.798Z,14.20
2022-09-20T14:50:40.034Z,14.30
2022-09-20T14:53:12.947Z,14.30
2022-09-20T14:56:19.483Z,14.40
2022-09-20T14:59:05.409Z,14.40
2022-09-20T15:01:33.131Z,14.40
2022-09-20T15:04:06.028Z,14.50
2022-09-20T15:06:35.638Z,14.40
2022-09-20T15:09:02.182Z,14.40
2022-09-20T15:11:30.264Z,14.30
2022-09-20T15:13:56.788Z,14.50
2022-09-20T15:16:24.198Z,14.50
2022-09-20T15:18:51.286Z,14.50
2022-09-20T15:21:17.962Z,14.50
2022-09-20T15:23:44.875Z,14.50
2022-09-20T15:26:13.520Z,14.50
2022-09-20T15:28:40.819Z,14.50
2022-09-20T15:31:07.409Z,14.50
2022-09-20T15:33:34.372Z,14.50
2022-09-20T15:36:04.927Z,14.50
2022-09-20T15:38:31.975Z,14.50
2022-09-20T15:41:03.372Z,14.50
2022-09-20T15:43:30.931Z,14.50
2022-09-20T15:46:03.363Z,14.60
2022-09-20T15:48:30.795Z,14.40
2022-09-20T15:51:06.171Z,14.40
2022-09-20T15:53:39.361Z,14.30
2022-09-20T15:56:15.381Z,14.30
2022-09-20T15:58:47.113Z,14.20
2022-09-20T16:01:18.151Z,14.30
2022-09-20T16:03:46.271Z,14.20
2022-09-20T16:06:13.256Z,14.20
2022-09-20T16:08:42.688Z,14.10
2022-09-20T16:11:12.967Z,14.00
2022-09-20T16:13:39.672Z,14.10
2022-09-20T16:16:09.231Z,14.00
2022-09-20T16:18:55.367Z,13.90
2022-09-20T16:21:23.129Z,13.80
2022-09-20T16:23:51.795Z,13.70
2022-09-20T16:26:19.572Z,13.70
2022-09-20T16:28:47.862Z,13.60
2022-09-20T16:31:41.192Z,13.40
2022-09-20T16:34:19.573Z,13.40
2022-09-20T16:36:49.229Z,13.30
2022-09-20T16:39:17.248Z,13.10
2022-09-20T16:41:47.483Z,13.00
2022-09-20T16:44:15.221Z,12.90
2022-09-20T16:46:42.425Z,12.80
2022-09-20T16:49:11.430Z,12.80
2022-09-20T16:51:40.095Z,12.70
2022-09-20T16:54:12.497Z,12.70
2022-09-20T16:56:41.970Z,12.50
2022-09-20T16:59:09.549Z,12.40
2022-09-20T17:01:38.419Z,12.30
2022-09-20T17:04:05.409Z,12.30
2022-09-20T17:06:35.000Z,12.20
2022-09-20T17:09:02.563Z,12.00
2022-09-20T17:11:31.982Z,11.90
2022-09-20T17:13:58.646Z,11.80
2022-09-20T17:16:32.706Z,11.80
2022-09-20T17:19:01.739Z,11.70
2022-09-20T17:21:29.910Z,11.50
2022-09-20T17:23:59.095Z,11.40
2022-09-20T17:26:34.503Z,11.30
2022-09-20T17:29:03.549Z,11.20
2022-09-20T17:31:33.898Z,11.10
2022-09-20T17:34:07.645Z,11.00
2022-09-20T17:36:45.687Z,10.90
2022-09-20T17:39:13.793Z,10.70
2022-09-20T17:41:43.206Z,10.70
2022-09-20T17:44:11.756Z,10.50
2022-09-20T17:46:41.977Z,10.40
2022-09-20T17:49:13.894Z,10.30
2022-09-20T17:51:46.326Z,10.30
2022-09-20T17:54:13.961Z,10.30
2022-09-20T17:56:46.620Z,10.20
2022-09-20T17:59:16.033Z,10.10
2022-09-20T18:01:44.187Z,10.00
2022-09-20T18:04:11.854Z,9.90
2022-09-20T18:06:56.533Z,9.80
2022-09-20T18:09:25.635Z,9.70
2022-09-20T18:11:54.093Z,9.60
2022-09-20T18:14:24.689Z,9.50
2022-09-20T18:16:52.939Z,9.50
2022-09-20T18:19:22.886Z,9.50
2022-09-20T18:21:49.854Z,9.50
2022-09-20T18:24:16.425Z,9.40
2022-09-20T18:26:44.406Z,9.30
2022-09-20T18:29:18.227Z,9.40
2022-09-20T18:31:54.665Z,9.30
2022-09-20T18:34:23.113Z,9.20
2022-09-20T18:36:55.376Z,9.10
2022-09-20T18:39:23.779Z,9.10
2022-09-20T18:41:51.175Z,9.00
2022-09-20T18:44:18.429Z,9.00
2022-09-20T18:46:46.370Z,8.90
2022-09-20T18:49:15.384Z,8.90
2022-09-20T18:51:43.983Z,8.80
2022-09-20T18:54:13.219Z,8.80
2022-09-20T18:56:45.205Z,8.80
2022-09-20T18:59:20.067Z,8.70
2022-09-20T19:02:00.563Z,8.70
2022-09-20T19:04:51.990Z,8.60
2022-09-20T19:07:27.784Z,8.60
2022-09-20T19:10:03.085Z,8.60
2022-09-20T19:12:50.159Z,8.60
2022-09-20T19:15:56.583Z,8.60
2022-09-20T19:18:38.609Z,8.50
2022-09-20T19:21:27.049Z,8.40
2022-09-20T19:24:32.506Z,8.40
2022-09-20T19:26:59.307Z,8.30
2022-09-20T19:29:28.816Z,8.30
2022-09-20T19:31:58.002Z,8.30
2022-09-20T19:34:30.775Z,8.30
2022-09-20T19:37:18.987Z,8.30
2022-09-20T19:40:11.581Z,8.30
2022-09-20T19:43:05.437Z,8.30
2022-09-20T19:46:12.224Z,8.30
2022-09-20T19:48:54.317Z,8.30
2022-09-20T19:51:22.288Z,8.30
2022-09-20T19:53:49.757Z,8.30
2022-09-20T19:56:46.484Z,8.30
2022-09-20T19:59:15.122Z,8.30
2022-09-20T20:01:41.983Z,8.20
2022-09-20T20:04:09.240Z,8.30
2022-09-20T20:07:08.241Z,8.30
2022-09-20T20:09:56.555Z,8.30
2022-09-20T20:12:59.119Z,8.30
2022-09-20T20:15:52.468Z,8.30
2022-09-20T20:18:32.987Z,8.30
2022-09-20T20:21:00.031Z,8.30
2022-09-20T20:24:05.960Z,8.30
2022-09-20T20:26:32.758Z,8.30
2022-09-20T20:29:00.092Z,8.40
2022-09-20T20:31:27.540Z,8.40
2022-09-20T20:33:55.009Z,8.30
2022-09-20T20:36:21.602Z,8.50
2022-09-20T20:38:52.010Z,8.40
2022-09-20T20:41:21.645Z,8.50
2022-09-20T20:43:52.143Z,8.50
2022-09-20T20:46:18.959Z,8.50
2022-09-20T20:48:47.143Z,8.50
2022-09-20T20:51:16.906Z,8.50
2022-09-20T20:53:49.245Z,8.50
2022-09-20T20:56:28.889Z,8.50
2022-09-20T20:59:00.661Z,8.50
2022-09-20T21:01:31.670Z,8.50
2022-09-20T21:03:59.731Z,8.50
2022-09-20T21:06:29.094Z,8.30
2022-09-20T21:08:56.199Z,8.40
2022-09-20T21:11:25.542Z,8.50
2022-09-20T21:13:53.377Z,8.40
2022-09-20T21:16:22.743Z,8.50
2022-09-20T21:18:50.819Z,8.40
2022-09-20T21:21:26.980Z,8.40
2022-09-20T21:23:55.928Z,8.40
2022-09-20T21:26:24.850Z,8.30
2022-09-20T21:28:53.832Z,8.40
2022-09-20T21:31:22.725Z,8.30
2022-09-20T21:33:49.744Z,8.30
2022-09-20T21:36:19.537Z,8.20
2022-09-20T21:38:46.461Z,8.10
2022-09-20T21:41:18.624Z,8.20
2022-09-20T21:43:47.111Z,8.10
2022-09-20T21:46:16.161Z,8.10
2022-09-20T21:48:43.313Z,8.10
2022-09-20T21:51:11.742Z,8.10
2022-09-20T21:53:39.242Z,8.00
2022-09-20T21:56:08.714Z,8.00
2022-09-20T21:58:35.543Z,8.00
2022-09-20T22:01:10.361Z,8.00
2022-09-20T22:03:48.125Z,7.90
2022-09-20T22:06:20.542Z,7.80
2022-09-20T22:09:01.881Z,7.80
2022-09-20T22:11:31.435Z,7.80
2022-09-20T22:13:58.867Z,7.80
2022-09-20T22:16:31.644Z,7.90
2022-09-20T22:19:01.878Z,7.70
2022-09-20T22:21:30.729Z,7.70
2022-09-20T22:24:01.092Z,7.70
2022-09-20T22:26:30.399Z,7.60
2022-09-20T22:28:57.857Z,7.50
2022-09-20T22:31:32.867Z,7.50
2022-09-20T22:34:06.231Z,7.50
2022-09-20T22:36:38.831Z,7.50
2022-09-20T22:39:07.824Z,7.40
2022-09-20T22:41:35.806Z,7.30
2022-09-20T22:44:03.194Z,7.20
2022-09-20T22:46:31.181Z,7.20
2022-09-20T22:48:57.890Z,7.20
2022-09-20T22:51:31.671Z,7.20
2022-09-20T22:53:58.157Z,7.20
2022-09-20T22:56:30.010Z,7.10
2022-09-20T22:58:59.983Z,7.00
2022-09-20T23:01:29.800Z,7.00
2022-09-20T23:04:01.909Z,7.00
2022-09-20T23:06:31.659Z,7.00
2022-09-20T23:09:01.640Z,6.80
2022-09-20T23:11:29.189Z,6.90
2022-09-20T23:13:58.799Z,6.90
2022-09-20T23:16:28.173Z,6.80
2022-09-20T23:18:56.971Z,6.80
2022-09-20T23:21:24.490Z,6.70
2022-09-20T23:23:59.419Z,6.70
2022-09-20T23:26:27.867Z,6.70
2022-09-20T23:28:57.912Z,6.60
2022-09-20T23:31:26.060Z,6.60
2022-09-20T23:33:58.282Z,6.50
2022-09-20T23:36:27.177Z,6.50
2022-09-20T23:38:54.203Z,6.50
2022-09-20T23:41:23.678Z,6.50
2022-09-20T23:43:50.597Z,6.50
2022-09-20T23:46:19.259Z,6.40
2022-09-20T23:48:46.547Z,6.40
2022-09-20T23:51:15.699Z,6.40
2022-09-20T23:53:42.980Z,6.30
2022-09-20T23:56:11.110Z,6.30
2022-09-20T23:58:39.113Z,6.20
